createdAt,value
2023-05-05T00:02:21.648Z,6.75
2023-05-05T00:04:48.568Z,7.05
2023-05-05T00:07:15.639Z,6.40
2023-05-05T00:09:43.610Z,6.43
2023-05-05T00:12:10.721Z,6.83
2023-05-05T00:14:37.822Z,6.75
2023-05-05T00:17:05.785Z,6.55
2023-05-05T00:19:36.311Z,5.22
2023-05-05T00:22:11.504Z,6.30
2023-05-05T00:24:45.147Z,5.50
2023-05-05T00:27:14.902Z,5.32
2023-05-05T00:29:45.051Z,5.38
2023-05-05T00:32:14.321Z,5.07
2023-05-05T00:34:41.138Z,5.88
2023-05-05T00:37:07.949Z,6.40
2023-05-05T00:39:34.796Z,5.10
2023-05-05T00:42:01.670Z,5.18
2023-05-05T00:44:38.277Z,5.65
2023-05-05T00:47:06.002Z,5.93
2023-05-05T00:49:33.719Z,6.00
2023-05-05T00:52:00.792Z,6.10
2023-05-05T00:54:28.186Z,6.97
2023-05-05T00:56:55.356Z,7.18
2023-05-05T00:59:22.392Z,6.43
2023-05-05T01:01:49.599Z,5.30
2023-05-05T01:04:16.462Z,6.70
2023-05-05T01:07:03.864Z,6.00
2023-05-05T01:10:18.033Z,6.50
2023-05-05T01:13:14.746Z,6.25
2023-05-05T01:15:50.655Z,7.17
2023-05-05T01:18:37.745Z,6.50
2023-05-05T01:21:42.797Z,6.55
2023-05-05T01:24:42.137Z,6.53
2023-05-05T01:27:30.792Z,5.85
2023-05-05T01:30:03.229Z,6.20
2023-05-05T01:32:34.097Z,5.88
2023-05-05T01:35:09.732Z,5.95
2023-05-05T01:38:17.352Z,6.22
2023-05-05T01:40:49.284Z,5.60
2023-05-05T01:43:20.359Z,5.80
2023-05-05T01:45:49.086Z,5.95
2023-05-05T01:48:19.733Z,6.13
2023-05-05T01:50:48.514Z,6.93
2023-05-05T01:53:18.268Z,6.75
2023-05-05T01:55:47.585Z,6.13
2023-05-05T01:58:16.352Z,6.70
2023-05-05T02:00:44.495Z,6.05
2023-05-05T02:03:13.936Z,5.78
2023-05-05T02:05:44.112Z,5.47
2023-05-05T02:08:12.556Z,5.33
2023-05-05T02:10:40.304Z,5.10
2023-05-05T02:13:08.200Z,5.10
2023-05-05T02:15:37.767Z,5.20
2023-05-05T02:18:06.944Z,5.82
2023-05-05T02:20:36.279Z,5.37
2023-05-05T02:23:03.326Z,5.03
2023-05-05T02:25:46.159Z,4.97
2023-05-05T02:28:21.545Z,5.10
2023-05-05T02:30:59.652Z,5.00
2023-05-05T02:33:29.593Z,5.37
2023-05-05T02:35:57.668Z,6.30
2023-05-05T02:38:30.848Z,7.38
2023-05-05T02:40:59.427Z,7.40
2023-05-05T02:43:30.055Z,6.85
2023-05-05T02:45:57.268Z,5.73
2023-05-05T02:48:24.158Z,6.38
2023-05-05T02:50:51.101Z,5.18
2023-05-05T02:53:23.808Z,6.70
2023-05-05T02:55:57.415Z,6.63
2023-05-05T02:58:57.209Z,6.37
2023-05-05T03:02:02.799Z,6.85
2023-05-05T03:04:38.610Z,7.82
2023-05-05T03:07:26.279Z,8.27
2023-05-05T03:10:05.527Z,6.78
2023-05-05T03:12:40.059Z,6.50
2023-05-05T03:15:10.634Z,6.25
2023-05-05T03:17:39.738Z,6.65
2023-05-05T03:20:08.200Z,6.32
2023-05-05T03:22:41.303Z,6.05
2023-05-05T03:25:08.635Z,6.63
2023-05-05T03:27:36.230Z,6.60
2023-05-05T03:30:03.356Z,5.47
2023-05-05T03:32:30.441Z,4.85
2023-05-05T03:34:57.686Z,6.07
2023-05-05T03:37:24.702Z,6.20
2023-05-05T03:39:51.567Z,7.18
2023-05-05T03:42:18.606Z,8.60
2023-05-05T03:44:45.689Z,8.68
2023-05-05T03:47:13.207Z,8.63
2023-05-05T03:49:40.132Z,8.97
2023-05-05T03:52:07.187Z,9.20
2023-05-05T03:54:34.364Z,9.35
2023-05-05T03:57:01.514Z,9.60
2023-05-05T03:59:28.523Z,9.43
2023-05-05T04:01:55.588Z,9.07
2023-05-05T04:04:22.484Z,9.45
2023-05-05T04:06:49.696Z,9.60
2023-05-05T04:09:16.541Z,8.93
2023-05-05T04:11:43.430Z,8.82
2023-05-05T04:14:10.508Z,6.13
2023-05-05T04:16:37.838Z,9.35
2023-05-05T04:19:04.738Z,5.00
2023-05-05T04:21:31.786Z,4.22
2023-05-05T04:23:58.758Z,3.78
2023-05-05T04:26:25.880Z,4.00
2023-05-05T04:28:53.022Z,3.08
2023-05-05T04:31:20.210Z,2.75
2023-05-05T04:33:47.340Z,2.80
2023-05-05T04:36:14.500Z,2.80
2023-05-05T04:38:41.550Z,2.90
2023-05-05T04:41:08.541Z,2.85
2023-05-05T04:43:35.595Z,2.80
2023-05-05T04:46:02.474Z,2.65
2023-05-05T04:48:29.350Z,2.90
2023-05-05T04:50:56.683Z,2.60
2023-05-05T04:53:24.821Z,2.80
2023-05-05T04:55:52.115Z,3.00
2023-05-05T04:58:19.832Z,2.45
2023-05-05T05:00:47.644Z,2.80
2023-05-05T05:03:14.758Z,2.83
2023-05-05T05:05:41.873Z,2.80
2023-05-05T05:08:08.929Z,2.60
2023-05-05T05:10:36.396Z,2.92
2023-05-05T05:13:12.902Z,2.80
2023-05-05T05:15:40.068Z,2.60
2023-05-05T05:18:14.340Z,2.70
2023-05-05T05:20:41.168Z,2.80
2023-05-05T05:23:07.945Z,2.50
2023-05-05T05:25:34.773Z,2.90
2023-05-05T05:28:10.346Z,3.20
2023-05-05T05:30:37.905Z,2.83
2023-05-05T05:33:15.909Z,2.90
2023-05-05T05:35:43.260Z,3.28
2023-05-05T05:38:10.143Z,3.30
2023-05-05T05:40:37.034Z,3.13
2023-05-05T05:43:17.352Z,3.13
2023-05-05T05:45:44.856Z,3.40
2023-05-05T05:48:11.773Z,3.00
2023-05-05T05:50:49.780Z,2.97
2023-05-05T05:53:16.664Z,3.80
2023-05-05T05:55:46.441Z,3.25
2023-05-05T05:58:13.287Z,3.17
2023-05-05T06:00:40.195Z,3.35
2023-05-05T06:03:07.152Z,3.10
2023-05-05T06:05:33.986Z,3.00
2023-05-05T06:08:01.288Z,2.80
2023-05-05T06:10:28.627Z,2.50
2023-05-05T06:12:55.580Z,2.78
2023-05-05T06:15:22.705Z,2.60
2023-05-05T06:17:49.514Z,2.80
2023-05-05T06:20:16.463Z,3.30
2023-05-05T06:22:44.602Z,3.00
2023-05-05T06:25:11.587Z,2.70
2023-05-05T06:27:38.609Z,2.50
2023-05-05T06:30:07.198Z,2.83
2023-05-05T06:32:34.280Z,2.35
2023-05-05T06:35:01.319Z,2.25
2023-05-05T06:37:39.101Z,2.10
2023-05-05T06:40:06.976Z,1.90
2023-05-05T06:42:34.032Z,1.97
2023-05-05T06:45:00.924Z,2.10
2023-05-05T06:47:27.766Z,1.98
2023-05-05T06:49:54.746Z,1.70
2023-05-05T06:52:23.197Z,1.80
2023-05-05T06:54:50.807Z,1.97
2023-05-05T06:57:17.706Z,2.03
2023-05-05T06:59:44.821Z,1.63
2023-05-05T07:02:11.684Z,1.90
2023-05-05T07:04:38.705Z,1.70
2023-05-05T07:07:05.591Z,1.77
2023-05-05T07:09:32.577Z,1.80
2023-05-05T07:11:59.459Z,1.90
2023-05-05T07:14:26.898Z,2.40
2023-05-05T07:16:54.009Z,2.10
2023-05-05T07:19:20.854Z,1.70
2023-05-05T07:21:55.216Z,1.65
2023-05-05T07:24:24.337Z,2.30
2023-05-05T07:26:51.349Z,2.38
2023-05-05T07:29:18.312Z,2.25
2023-05-05T07:31:45.587Z,1.90
2023-05-05T07:34:12.545Z,1.65
2023-05-05T07:36:39.504Z,1.67
2023-05-05T07:39:06.343Z,1.70
2023-05-05T07:41:34.282Z,2.08
2023-05-05T07:44:01.308Z,1.70
2023-05-05T07:46:28.286Z,1.50
2023-05-05T07:48:55.252Z,1.70
2023-05-05T07:51:22.127Z,1.80
2023-05-05T07:53:49.015Z,1.80
2023-05-05T07:56:16.168Z,1.80
2023-05-05T07:58:43.305Z,1.85
2023-05-05T08:01:10.237Z,1.48
2023-05-05T08:03:37.721Z,1.50
2023-05-05T08:06:09.499Z,1.55
2023-05-05T08:08:37.044Z,1.60
2023-05-05T08:11:03.985Z,2.05
2023-05-05T08:13:31.068Z,1.60
2023-05-05T08:15:58.379Z,1.58
2023-05-05T08:18:25.425Z,1.58
2023-05-05T08:20:52.674Z,1.50
2023-05-05T08:23:19.959Z,1.50
2023-05-05T08:25:46.887Z,1.67
2023-05-05T08:28:13.833Z,1.25
2023-05-05T08:30:40.772Z,1.60
2023-05-05T08:33:07.672Z,2.17
2023-05-05T08:35:34.985Z,1.27
2023-05-05T08:38:01.914Z,1.73
2023-05-05T08:40:37.275Z,1.50
2023-05-05T08:43:05.221Z,1.70
2023-05-05T08:45:33.329Z,1.27
2023-05-05T08:48:05.526Z,1.50
2023-05-05T08:53:57.511Z,1.73
2023-05-05T08:56:27.348Z,1.70
2023-05-05T08:58:55.091Z,1.57
2023-05-05T09:01:23.173Z,1.40
2023-05-05T09:03:52.568Z,1.75
2023-05-05T09:06:23.952Z,1.40
2023-05-05T09:08:59.655Z,1.45
2023-05-05T09:11:26.814Z,1.30
2023-05-05T09:13:54.875Z,1.70
2023-05-05T09:16:21.942Z,1.20
2023-05-05T09:18:50.003Z,1.42
2023-05-05T09:21:26.667Z,1.58
2023-05-05T09:24:11.510Z,1.63
2023-05-05T09:26:44.781Z,1.42
2023-05-05T09:29:21.470Z,1.40
2023-05-05T09:32:06.729Z,1.67
2023-05-05T09:34:35.057Z,1.55
2023-05-05T09:37:20.054Z,1.40
2023-05-05T09:39:54.471Z,1.20
2023-05-05T09:42:21.431Z,1.40
2023-05-05T09:44:48.274Z,1.50
2023-05-05T09:47:26.356Z,1.50
2023-05-05T09:49:59.594Z,3.00
2023-05-05T09:52:26.643Z,1.60
2023-05-05T09:54:57.342Z,1.50
2023-05-05T09:57:33.089Z,1.50
2023-05-05T10:00:01.804Z,1.70
2023-05-05T10:02:33.483Z,1.30
2023-05-05T10:05:09.318Z,1.40
2023-05-05T10:07:37.516Z,1.25
2023-05-05T10:10:06.141Z,1.30
2023-05-05T10:12:50.149Z,1.35
2023-05-05T10:15:17.363Z,1.63
2023-05-05T10:18:05.367Z,1.40
2023-05-05T10:20:33.656Z,1.40
2023-05-05T10:23:07.381Z,1.50
2023-05-05T10:25:51.421Z,1.63
2023-05-05T10:28:29.026Z,1.37
2023-05-05T10:30:58.635Z,1.40
2023-05-05T10:33:43.283Z,1.20
2023-05-05T10:36:10.554Z,1.70
2023-05-05T10:38:38.437Z,1.60
2023-05-05T10:41:06.038Z,1.50
2023-05-05T10:43:35.994Z,1.80
2023-05-05T10:46:04.418Z,1.40
2023-05-05T10:48:40.065Z,1.48
2023-05-05T10:51:27.413Z,1.80
2023-05-05T10:54:10.737Z,1.73
2023-05-05T10:56:41.231Z,1.60
2023-05-05T10:59:37.243Z,1.40
2023-05-05T11:02:31.038Z,1.40
2023-05-05T11:05:12.051Z,1.52
2023-05-05T11:07:40.364Z,1.60
2023-05-05T11:10:10.186Z,1.60
2023-05-05T11:12:55.384Z,1.58
2023-05-05T11:15:29.376Z,1.70
2023-05-05T11:18:02.643Z,1.33
2023-05-05T11:20:37.852Z,1.90
2023-05-05T11:23:05.333Z,1.80
2023-05-05T11:25:35.324Z,1.90
2023-05-05T11:28:16.475Z,1.70
2023-05-05T11:30:58.555Z,1.70
2023-05-05T11:33:33.883Z,1.63
2023-05-05T11:36:06.841Z,1.48
2023-05-05T11:38:56.182Z,1.75
2023-05-05T11:41:31.670Z,1.40
2023-05-05T11:44:18.261Z,1.50
2023-05-05T11:46:50.856Z,1.50
2023-05-05T11:49:36.764Z,1.40
2023-05-05T11:52:07.632Z,1.40
2023-05-05T11:54:48.164Z,1.40
2023-05-05T11:57:19.825Z,1.52
2023-05-05T11:59:54.927Z,1.70
2023-05-05T12:02:23.418Z,1.88
2023-05-05T12:04:50.967Z,1.80
2023-05-05T12:07:20.051Z,1.73
2023-05-05T12:09:48.319Z,2.22
2023-05-05T12:12:16.189Z,1.40
2023-05-05T12:14:51.276Z,1.63
2023-05-05T12:17:22.770Z,1.70
2023-05-05T12:19:51.876Z,1.67
2023-05-05T12:22:21.987Z,1.50
2023-05-05T12:25:00.339Z,1.50
2023-05-05T12:27:28.404Z,1.60
2023-05-05T12:29:57.540Z,1.50
2023-05-05T12:32:26.497Z,1.48
2023-05-05T12:34:55.142Z,1.52
2023-05-05T12:37:23.164Z,1.67
2023-05-05T12:39:57.790Z,1.50
2023-05-05T12:42:24.821Z,2.00
2023-05-05T12:44:51.699Z,1.48
2023-05-05T12:47:32.824Z,1.80
2023-05-05T12:50:00.393Z,1.60
2023-05-05T12:52:44.758Z,1.45
2023-05-05T12:55:13.562Z,1.58
2023-05-05T12:57:59.407Z,1.40
2023-05-05T13:00:26.930Z,1.48
2023-05-05T13:02:54.006Z,1.37
2023-05-05T13:05:34.947Z,1.80
2023-05-05T13:08:01.942Z,1.58
2023-05-05T13:10:28.976Z,1.42
2023-05-05T13:12:56.494Z,1.40
2023-05-05T13:15:24.939Z,1.50
2023-05-05T13:17:59.067Z,1.80
2023-05-05T13:20:26.208Z,2.42
2023-05-05T13:22:53.032Z,2.00
2023-05-05T13:25:19.965Z,2.00
2023-05-05T13:27:46.848Z,2.07
2023-05-05T13:30:14.272Z,2.10
2023-05-05T13:32:42.482Z,2.30
2023-05-05T13:35:09.639Z,1.70
2023-05-05T13:37:36.783Z,1.55
2023-05-05T13:40:04.007Z,2.33
2023-05-05T13:42:30.802Z,1.80
2023-05-05T13:44:57.640Z,1.70
2023-05-05T13:47:24.684Z,1.60
2023-05-05T13:49:51.686Z,1.80
2023-05-05T13:52:18.625Z,1.70
2023-05-05T13:54:45.672Z,1.60
2023-05-05T13:57:12.694Z,1.60
2023-05-05T13:59:39.536Z,2.00
2023-05-05T14:02:07.193Z,2.13
2023-05-05T14:04:34.284Z,1.67
2023-05-05T14:07:01.400Z,1.65
2023-05-05T14:09:32.513Z,1.75
2023-05-05T14:11:59.372Z,1.60
2023-05-05T14:14:26.398Z,1.65
2023-05-05T14:16:53.430Z,2.27
2023-05-05T14:19:20.691Z,2.17
2023-05-05T14:21:47.473Z,2.10
2023-05-05T14:24:15.165Z,1.90
2023-05-05T14:26:41.998Z,2.00
2023-05-05T14:29:09.083Z,1.90
2023-05-05T14:31:36.457Z,2.08
2023-05-05T14:34:03.432Z,2.17
2023-05-05T14:36:30.474Z,1.95
2023-05-05T14:38:57.498Z,1.90
2023-05-05T14:41:24.443Z,2.00
2023-05-05T14:43:51.430Z,1.83
2023-05-05T14:46:18.588Z,1.80
2023-05-05T14:48:45.832Z,1.70
2023-05-05T14:51:14.775Z,2.78
2023-05-05T14:53:41.994Z,2.00
2023-05-05T14:56:09.066Z,1.80
2023-05-05T14:58:36.121Z,1.73
2023-05-05T15:01:03.083Z,1.85
2023-05-05T15:03:30.022Z,1.77
2023-05-05T15:05:57.074Z,1.90
2023-05-05T15:08:24.127Z,1.70
2023-05-05T15:10:51.069Z,1.65
2023-05-05T15:13:18.022Z,1.70
2023-05-05T15:15:44.990Z,1.65
2023-05-05T15:18:12.153Z,1.70
2023-05-05T15:20:39.069Z,2.15
2023-05-05T15:23:06.164Z,1.95
2023-05-05T15:25:33.164Z,1.60
2023-05-05T15:28:00.239Z,2.10
2023-05-05T15:30:28.004Z,4.50
2023-05-05T15:32:55.110Z,3.05
2023-05-05T15:35:22.213Z,3.22
2023-05-05T15:37:55.100Z,2.10
2023-05-05T15:40:22.324Z,2.20
2023-05-05T15:42:49.360Z,2.80
2023-05-05T15:45:16.985Z,2.00
2023-05-05T15:47:44.050Z,1.92
2023-05-05T15:50:11.452Z,1.92
2023-05-05T15:52:38.561Z,1.92
2023-05-05T15:55:06.282Z,2.07
2023-05-05T15:57:34.568Z,2.65
2023-05-05T16:00:01.738Z,2.20
2023-05-05T16:02:28.959Z,1.80
2023-05-05T16:04:56.080Z,3.00
2023-05-05T16:07:23.138Z,2.70
2023-05-05T16:09:50.200Z,1.90
2023-05-05T16:12:20.628Z,2.20
2023-05-05T16:14:47.852Z,1.80
2023-05-05T16:17:14.910Z,2.25
2023-05-05T16:19:41.961Z,1.87
2023-05-05T16:22:09.433Z,1.92
2023-05-05T16:24:36.607Z,1.60
2023-05-05T16:27:04.184Z,1.60
2023-05-05T16:29:31.179Z,1.33
2023-05-05T16:31:58.335Z,1.57
2023-05-05T16:34:25.874Z,1.50
2023-05-05T16:36:55.928Z,1.63
2023-05-05T16:39:29.900Z,1.63
2023-05-05T16:41:57.345Z,1.70
2023-05-05T16:44:34.653Z,1.63
2023-05-05T16:47:05.448Z,1.73
2023-05-05T16:49:32.832Z,1.98
2023-05-05T16:51:59.970Z,1.70
2023-05-05T16:54:27.369Z,1.58
2023-05-05T16:56:54.440Z,1.60
2023-05-05T16:59:21.362Z,1.73
2023-05-05T17:01:48.514Z,1.70
2023-05-05T17:04:15.653Z,1.75
2023-05-05T17:06:42.726Z,1.75
2023-05-05T17:09:09.856Z,2.00
2023-05-05T17:11:36.906Z,1.80
2023-05-05T17:14:03.969Z,1.70
2023-05-05T17:16:32.098Z,1.90
2023-05-05T17:18:59.168Z,2.25
2023-05-05T17:21:26.054Z,2.10
2023-05-05T17:23:54.720Z,4.13
2023-05-05T17:26:22.881Z,5.28
2023-05-05T17:28:50.041Z,2.10
2023-05-05T17:31:17.131Z,1.40
2023-05-05T17:33:44.127Z,1.50
2023-05-05T17:36:11.264Z,1.60
2023-05-05T17:38:38.506Z,1.58
2023-05-05T17:41:08.552Z,1.55
2023-05-05T17:43:37.040Z,1.63
2023-05-05T17:46:06.644Z,1.50
2023-05-05T17:48:33.935Z,1.65
2023-05-05T17:51:01.800Z,1.88
2023-05-05T17:53:31.574Z,1.58
2023-05-05T17:56:02.827Z,1.67
2023-05-05T17:58:29.808Z,1.60
2023-05-05T18:00:57.050Z,1.52
2023-05-05T18:03:29.434Z,1.80
2023-05-05T18:06:02.475Z,1.80
2023-05-05T18:08:29.938Z,1.90
2023-05-05T18:10:56.992Z,1.80
2023-05-05T18:13:24.128Z,1.63
2023-05-05T18:15:54.515Z,1.70
2023-05-05T18:18:22.053Z,2.13
2023-05-05T18:20:49.723Z,2.00
2023-05-05T18:23:16.855Z,2.33
2023-05-05T18:25:46.975Z,2.30
2023-05-05T18:28:14.061Z,2.05
2023-05-05T18:30:43.915Z,2.17
2023-05-05T18:33:13.399Z,2.47
2023-05-05T18:35:40.585Z,2.43
2023-05-05T18:38:07.590Z,2.17
2023-05-05T18:40:34.572Z,2.30
2023-05-05T18:43:01.645Z,2.10
2023-05-05T18:45:31.448Z,2.10
2023-05-05T18:47:58.641Z,2.50
2023-05-05T18:50:25.726Z,2.10
2023-05-05T18:52:52.905Z,2.20
2023-05-05T18:55:20.065Z,2.70
2023-05-05T18:57:47.132Z,2.70
2023-05-05T19:00:14.442Z,2.43
2023-05-05T19:02:41.572Z,2.45
2023-05-05T19:05:09.556Z,1.75
2023-05-05T19:07:36.906Z,1.90
2023-05-05T19:10:05.242Z,1.80
2023-05-05T19:12:32.266Z,2.10
2023-05-05T19:15:02.271Z,2.00
2023-05-05T19:17:29.378Z,1.80
2023-05-05T19:19:56.727Z,2.40
2023-05-05T19:22:24.860Z,1.90
2023-05-05T19:24:51.769Z,2.30
2023-05-05T19:27:18.855Z,1.85
2023-05-05T19:29:48.320Z,1.90
2023-05-05T19:32:18.460Z,2.00
2023-05-05T19:34:50.924Z,1.90
2023-05-05T19:37:18.031Z,1.87
2023-05-05T19:39:46.462Z,2.13
2023-05-05T19:42:17.687Z,1.80
2023-05-05T19:44:45.146Z,1.95
2023-05-05T19:47:13.707Z,2.30
2023-05-05T19:49:52.131Z,2.30
2023-05-05T19:52:19.203Z,2.10
2023-05-05T19:54:49.936Z,1.73
2023-05-05T19:57:22.323Z,2.00
2023-05-05T19:59:49.357Z,1.90
2023-05-05T20:02:16.844Z,2.20
2023-05-05T20:04:44.284Z,2.00
2023-05-05T20:07:12.718Z,2.83
2023-05-05T20:09:40.084Z,1.92
2023-05-05T20:12:10.458Z,2.22
2023-05-05T20:14:39.612Z,1.90
2023-05-05T20:17:06.642Z,2.20
2023-05-05T20:19:36.631Z,2.22
2023-05-05T20:22:03.653Z,2.00
2023-05-05T20:24:30.976Z,1.80
2023-05-05T20:26:58.012Z,2.03
2023-05-05T20:29:25.063Z,2.22
2023-05-05T20:31:52.009Z,1.88
2023-05-05T20:34:19.187Z,2.00
2023-05-05T20:36:46.108Z,1.80
2023-05-05T20:39:16.270Z,2.00
2023-05-05T20:41:43.342Z,2.30
2023-05-05T20:44:10.320Z,1.80
2023-05-05T20:46:37.367Z,1.98
2023-05-05T20:49:04.542Z,3.10
2023-05-05T20:51:32.883Z,1.80
2023-05-05T20:54:00.411Z,1.77
2023-05-05T20:56:30.440Z,2.00
2023-05-05T20:58:57.473Z,2.00
2023-05-05T21:01:27.513Z,1.98
2023-05-05T21:03:59.632Z,1.80
2023-05-05T21:06:26.827Z,1.75
2023-05-05T21:08:53.908Z,1.60
2023-05-05T21:11:21.079Z,1.80
2023-05-05T21:13:48.058Z,1.90
2023-05-05T21:16:16.874Z,1.90
2023-05-05T21:18:44.168Z,2.00
2023-05-05T21:21:11.265Z,1.95
2023-05-05T21:23:38.332Z,2.15
2023-05-05T21:26:05.522Z,1.95
2023-05-05T21:28:32.510Z,2.27
2023-05-05T21:31:19.870Z,1.73
2023-05-05T21:33:46.537Z,2.03
2023-05-05T21:36:13.801Z,1.77
2023-05-05T21:38:41.097Z,1.90
2023-05-05T21:41:08.076Z,1.97
2023-05-05T21:43:34.990Z,1.80
2023-05-05T21:46:04.739Z,2.08
2023-05-05T21:48:31.865Z,1.80
2023-05-05T21:50:58.908Z,1.70
2023-05-05T21:53:25.873Z,1.93
2023-05-05T21:55:52.967Z,1.55
2023-05-05T21:58:19.872Z,1.90
2023-05-05T22:00:49.610Z,1.88
2023-05-05T22:03:17.045Z,2.13
2023-05-05T22:05:44.079Z,1.73
2023-05-05T22:08:10.947Z,1.60
2023-05-05T22:10:40.511Z,1.80
2023-05-05T22:13:07.590Z,1.65
2023-05-05T22:15:45.388Z,1.80
2023-05-05T22:18:14.165Z,1.73
2023-05-05T22:20:41.289Z,1.77
2023-05-05T22:23:08.199Z,1.65
2023-05-05T22:25:35.820Z,2.03
2023-05-05T22:28:02.902Z,1.70
2023-05-05T22:30:29.864Z,1.83
2023-05-05T22:33:00.219Z,1.80
2023-05-05T22:35:27.407Z,1.77
2023-05-05T22:37:54.565Z,1.90
2023-05-05T22:40:21.710Z,1.65
2023-05-05T22:42:49.237Z,1.90
2023-05-05T22:45:16.448Z,1.80
2023-05-05T22:47:43.560Z,1.98
2023-05-05T22:50:10.960Z,1.60
2023-05-05T22:52:37.881Z,1.80
2023-05-05T22:55:05.236Z,1.80
2023-05-05T22:57:34.496Z,1.95
2023-05-05T23:00:02.966Z,1.60
2023-05-05T23:02:30.051Z,1.70
2023-05-05T23:04:57.061Z,1.67
2023-05-05T23:07:24.095Z,1.50
2023-05-05T23:09:51.060Z,1.90
2023-05-05T23:12:18.128Z,1.70
2023-05-05T23:14:45.064Z,1.85
2023-05-05T23:17:12.141Z,1.70
2023-05-05T23:19:39.216Z,1.83
2023-05-05T23:22:06.140Z,1.70
2023-05-05T23:24:33.324Z,1.80
2023-05-05T23:27:01.204Z,2.10
2023-05-05T23:29:28.387Z,1.63
2023-05-05T23:31:55.592Z,1.90
2023-05-05T23:34:22.607Z,1.90
2023-05-05T23:36:49.831Z,1.52
2023-05-05T23:39:16.987Z,1.70
2023-05-05T23:41:44.111Z,1.77
2023-05-05T23:44:11.105Z,1.60
2023-05-05T23:46:38.335Z,1.60
2023-05-05T23:49:05.402Z,1.70
2023-05-05T23:51:34.511Z,1.70
2023-05-05T23:54:01.608Z,1.80
2023-05-05T23:56:28.599Z,1.70
2023-05-05T23:58:55.543Z,1.80
